Airport ID:K00U
Update Time (UTC):17/10/2021 19:25
Wind Speed (Knots):5
Wind Direction (Magnetic):170
Temperature (°C):21
Dew Point (°C):-1
Humidity (%):23
Altimeter (inHg):29.84
Density Altitude (Feet):4600
Visibility:10+
Clouds (Hundreds of feet):CLR
Present Weather:
METAR:METAR K00U 171925Z AUTO 18005KT 10SM CLR 21/M01 A2984 RMK A01

The data displayed is for advisory purposes only and is not to be used for flight planning or operations.